sensor_id;sensor_type;location;lat;lon;timestamp;P1;durP1;ratioP1;P2;durP2;ratioP2
36211;SDS011;22247;48.586;13.492;2024-01-30T00:01:03;31.40;;;13.35;;
36211;SDS011;22247;48.586;13.492;2024-01-30T00:03:28;41.97;;;16.48;;
36211;SDS011;22247;48.586;13.492;2024-01-30T00:08:18;28.05;;;12.63;;
36211;SDS011;22247;48.586;13.492;2024-01-30T00:13:08;28.65;;;11.18;;
36211;SDS011;22247;48.586;13.492;2024-01-30T00:15:33;30.40;;;12.68;;
36211;SDS011;22247;48.586;13.492;2024-01-30T00:17:58;36.20;;;13.65;;
36211;SDS011;22247;48.586;13.492;2024-01-30T00:20:23;32.08;;;14.65;;
36211;SDS011;22247;48.586;13.492;2024-01-30T00:25:13;30.67;;;12.30;;
36211;SDS011;22247;48.586;13.492;2024-01-30T00:27:38;30.45;;;12.27;;
36211;SDS011;22247;48.586;13.492;2024-01-30T00:30:03;27.35;;;10.68;;
36211;SDS011;22247;48.586;13.492;2024-01-30T00:32:29;23.38;;;9.93;;
36211;SDS011;22247;48.586;13.492;2024-01-30T00:34:54;29.20;;;11.20;;
36211;SDS011;22247;48.586;13.492;2024-01-30T00:37:19;25.05;;;12.50;;
36211;SDS011;22247;48.586;13.492;2024-01-30T00:42:08;39.17;;;14.23;;
36211;SDS011;22247;48.586;13.492;2024-01-30T00:47:02;43.97;;;17.70;;
36211;SDS011;22247;48.586;13.492;2024-01-30T00:51:52;32.88;;;15.15;;
36211;SDS011;22247;48.586;13.492;2024-01-30T00:54:17;34.45;;;16.88;;
36211;SDS011;22247;48.586;13.492;2024-01-30T00:59:08;30.15;;;14.27;;
36211;SDS011;22247;48.586;13.492;2024-01-30T01:01:33;31.63;;;14.55;;
36211;SDS011;22247;48.586;13.492;2024-01-30T01:06:23;41.22;;;14.73;;
36211;SDS011;22247;48.586;13.492;2024-01-30T01:11:13;41.90;;;14.40;;
36211;SDS011;22247;48.586;13.492;2024-01-30T01:13:38;32.13;;;12.18;;
36211;SDS011;22247;48.586;13.492;2024-01-30T01:16:05;34.08;;;12.38;;
36211;SDS011;22247;48.586;13.492;2024-01-30T01:20:55;30.05;;;10.93;;
36211;SDS011;22247;48.586;13.492;2024-01-30T01:25:44;35.22;;;11.98;;
36211;SDS011;22247;48.586;13.492;2024-01-30T01:30:36;30.48;;;10.82;;
36211;SDS011;22247;48.586;13.492;2024-01-30T01:33:01;30.63;;;11.85;;
36211;SDS011;22247;48.586;13.492;2024-01-30T01:37:52;37.80;;;12.40;;
36211;SDS011;22247;48.586;13.492;2024-01-30T01:40:23;29.98;;;10.98;;
36211;SDS011;22247;48.586;13.492;2024-01-30T01:42:49;28.67;;;10.82;;
36211;SDS011;22247;48.586;13.492;2024-01-30T01:45:15;35.72;;;13.07;;
36211;SDS011;22247;48.586;13.492;2024-01-30T01:47:40;28.98;;;11.35;;
36211;SDS011;22247;48.586;13.492;2024-01-30T01:50:06;27.98;;;10.75;;
36211;SDS011;22247;48.586;13.492;2024-01-30T01:52:31;33.10;;;11.05;;
36211;SDS011;22247;48.586;13.492;2024-01-30T01:57:23;27.55;;;10.95;;
36211;SDS011;22247;48.586;13.492;2024-01-30T01:59:48;28.27;;;12.38;;
36211;SDS011;22247;48.586;13.492;2024-01-30T02:02:13;37.67;;;11.90;;
36211;SDS011;22247;48.586;13.492;2024-01-30T02:04:41;26.42;;;11.20;;
36211;SDS011;22247;48.586;13.492;2024-01-30T02:09:31;26.10;;;11.40;;
36211;SDS011;22247;48.586;13.492;2024-01-30T02:11:56;26.33;;;11.23;;
36211;SDS011;22247;48.586;13.492;2024-01-30T02:14:23;28.98;;;11.27;;
36211;SDS011;22247;48.586;13.492;2024-01-30T02:16:48;33.42;;;12.40;;
36211;SDS011;22247;48.586;13.492;2024-01-30T02:21:37;25.92;;;11.20;;
36211;SDS011;22247;48.586;13.492;2024-01-30T02:24:03;27.35;;;10.10;;
36211;SDS011;22247;48.586;13.492;2024-01-30T02:26:28;26.17;;;10.68;;
36211;SDS011;22247;48.586;13.492;2024-01-30T02:31:17;25.45;;;11.00;;
36211;SDS011;22247;48.586;13.492;2024-01-30T02:36:07;28.08;;;11.60;;
36211;SDS011;22247;48.586;13.492;2024-01-30T02:40:57;25.75;;;10.73;;
36211;SDS011;22247;48.586;13.492;2024-01-30T02:43:22;31.23;;;12.68;;
36211;SDS011;22247;48.586;13.492;2024-01-30T02:45:47;29.85;;;12.32;;
36211;SDS011;22247;48.586;13.492;2024-01-30T02:48:12;29.60;;;14.38;;
36211;SDS011;22247;48.586;13.492;2024-01-30T02:50:40;33.00;;;12.93;;
36211;SDS011;22247;48.586;13.492;2024-01-30T02:53:09;27.65;;;12.60;;
36211;SDS011;22247;48.586;13.492;2024-01-30T02:55:34;27.20;;;14.38;;
36211;SDS011;22247;48.586;13.492;2024-01-30T02:58:02;41.80;;;19.33;;
36211;SDS011;22247;48.586;13.492;2024-01-30T03:00:27;33.60;;;15.50;;
36211;SDS011;22247;48.586;13.492;2024-01-30T03:05:16;32.15;;;14.90;;
36211;SDS011;22247;48.586;13.492;2024-01-30T03:07:41;30.33;;;13.30;;
36211;SDS011;22247;48.586;13.492;2024-01-30T03:12:31;27.95;;;12.50;;
36211;SDS011;22247;48.586;13.492;2024-01-30T03:14:56;26.02;;;11.68;;
36211;SDS011;22247;48.586;13.492;2024-01-30T03:17:21;28.90;;;15.10;;
36211;SDS011;22247;48.586;13.492;2024-01-30T03:19:48;36.47;;;20.00;;
36211;SDS011;22247;48.586;13.492;2024-01-30T03:24:37;30.60;;;16.98;;
36211;SDS011;22247;48.586;13.492;2024-01-30T03:27:02;36.30;;;23.17;;
36211;SDS011;22247;48.586;13.492;2024-01-30T03:29:27;33.70;;;16.65;;
36211;SDS011;22247;48.586;13.492;2024-01-30T03:34:17;33.30;;;20.67;;
36211;SDS011;22247;48.586;13.492;2024-01-30T03:39:07;34.60;;;19.45;;
36211;SDS011;22247;48.586;13.492;2024-01-30T03:43:56;35.92;;;21.50;;
36211;SDS011;22247;48.586;13.492;2024-01-30T03:46:21;35.92;;;16.67;;
36211;SDS011;22247;48.586;13.492;2024-01-30T03:51:10;33.35;;;18.60;;
36211;SDS011;22247;48.586;13.492;2024-01-30T03:53:40;31.00;;;14.48;;
36211;SDS011;22247;48.586;13.492;2024-01-30T03:56:05;28.38;;;14.05;;
36211;SDS011;22247;48.586;13.492;2024-01-30T04:00:55;32.08;;;16.17;;
36211;SDS011;22247;48.586;13.492;2024-01-30T04:03:20;32.33;;;16.67;;
36211;SDS011;22247;48.586;13.492;2024-01-30T04:05:45;27.00;;;14.85;;
36211;SDS011;22247;48.586;13.492;2024-01-30T04:10:34;28.15;;;13.98;;
36211;SDS011;22247;48.586;13.492;2024-01-30T04:15:27;24.08;;;12.05;;
36211;SDS011;22247;48.586;13.492;2024-01-30T04:17:53;43.22;;;15.25;;
36211;SDS011;22247;48.586;13.492;2024-01-30T04:20:20;31.98;;;17.48;;
36211;SDS011;22247;48.586;13.492;2024-01-30T04:25:10;29.15;;;17.27;;
36211;SDS011;22247;48.586;13.492;2024-01-30T04:27:35;37.67;;;18.33;;
36211;SDS011;22247;48.586;13.492;2024-01-30T04:32:27;29.58;;;19.80;;
36211;SDS011;22247;48.586;13.492;2024-01-30T04:37:17;46.28;;;28.77;;
36211;SDS011;22247;48.586;13.492;2024-01-30T04:39:42;61.30;;;40.67;;
36211;SDS011;22247;48.586;13.492;2024-01-30T04:42:07;48.03;;;28.80;;
36211;SDS011;22247;48.586;13.492;2024-01-30T04:46:56;38.38;;;25.35;;
36211;SDS011;22247;48.586;13.492;2024-01-30T04:49:25;48.78;;;28.48;;
36211;SDS011;22247;48.586;13.492;2024-01-30T04:54:14;52.20;;;35.55;;
36211;SDS011;22247;48.586;13.492;2024-01-30T04:56:42;91.85;;;57.05;;
36211;SDS011;22247;48.586;13.492;2024-01-30T05:01:32;105.43;;;68.15;;
36211;SDS011;22247;48.586;13.492;2024-01-30T05:03:57;62.42;;;45.30;;
36211;SDS011;22247;48.586;13.492;2024-01-30T05:08:50;52.15;;;32.25;;
36211;SDS011;22247;48.586;13.492;2024-01-30T05:13:40;110.97;;;69.75;;
36211;SDS011;22247;48.586;13.492;2024-01-30T05:16:07;57.53;;;39.90;;
36211;SDS011;22247;48.586;13.492;2024-01-30T05:18:32;51.38;;;31.75;;
36211;SDS011;22247;48.586;13.492;2024-01-30T05:20:57;75.03;;;51.08;;
36211;SDS011;22247;48.586;13.492;2024-01-30T05:25:46;49.70;;;33.08;;
36211;SDS011;22247;48.586;13.492;2024-01-30T05:30:36;46.47;;;30.80;;
36211;SDS011;22247;48.586;13.492;2024-01-30T05:33:01;64.15;;;40.22;;
36211;SDS011;22247;48.586;13.492;2024-01-30T05:35:26;102.60;;;63.05;;
36211;SDS011;22247;48.586;13.492;2024-01-30T05:40:16;88.32;;;55.15;;
36211;SDS011;22247;48.586;13.492;2024-01-30T05:45:06;58.03;;;34.28;;
36211;SDS011;22247;48.586;13.492;2024-01-30T05:47:32;40.63;;;21.83;;
36211;SDS011;22247;48.586;13.492;2024-01-30T05:52:21;63.85;;;40.55;;
36211;SDS011;22247;48.586;13.492;2024-01-30T05:57:11;75.85;;;48.03;;
36211;SDS011;22247;48.586;13.492;2024-01-30T05:59:36;63.00;;;37.53;;
36211;SDS011;22247;48.586;13.492;2024-01-30T06:04:25;64.67;;;41.70;;
36211;SDS011;22247;48.586;13.492;2024-01-30T06:09:15;44.33;;;20.25;;
36211;SDS011;22247;48.586;13.492;2024-01-30T06:11:40;41.90;;;22.20;;
36211;SDS011;22247;48.586;13.492;2024-01-30T06:16:29;48.33;;;20.95;;
36211;SDS011;22247;48.586;13.492;2024-01-30T06:18:55;51.83;;;22.20;;
36211;SDS011;22247;48.586;13.492;2024-01-30T06:21:20;47.53;;;18.15;;
36211;SDS011;22247;48.586;13.492;2024-01-30T06:26:09;64.35;;;25.95;;
36211;SDS011;22247;48.586;13.492;2024-01-30T06:31:00;55.30;;;29.55;;
36211;SDS011;22247;48.586;13.492;2024-01-30T06:33:25;40.15;;;16.65;;
36211;SDS011;22247;48.586;13.492;2024-01-30T06:38:15;43.90;;;19.67;;
36211;SDS011;22247;48.586;13.492;2024-01-30T06:43:04;63.80;;;22.98;;
36211;SDS011;22247;48.586;13.492;2024-01-30T06:47:56;47.50;;;24.42;;
36211;SDS011;22247;48.586;13.492;2024-01-30T06:52:46;36.13;;;12.77;;
36211;SDS011;22247;48.586;13.492;2024-01-30T06:55:11;63.90;;;33.30;;
36211;SDS011;22247;48.586;13.492;2024-01-30T07:00:01;40.13;;;17.30;;
36211;SDS011;22247;48.586;13.492;2024-01-30T07:04:53;37.50;;;21.23;;
36211;SDS011;22247;48.586;13.492;2024-01-30T07:09:43;40.72;;;20.52;;
36211;SDS011;22247;48.586;13.492;2024-01-30T07:12:11;32.03;;;15.20;;
36211;SDS011;22247;48.586;13.492;2024-01-30T07:17:01;43.70;;;24.58;;
36211;SDS011;22247;48.586;13.492;2024-01-30T07:19:26;40.97;;;13.00;;
36211;SDS011;22247;48.586;13.492;2024-01-30T07:24:16;48.00;;;29.70;;
36211;SDS011;22247;48.586;13.492;2024-01-30T07:26:41;33.17;;;13.00;;
36211;SDS011;22247;48.586;13.492;2024-01-30T07:29:06;41.22;;;20.90;;
36211;SDS011;22247;48.586;13.492;2024-01-30T07:31:31;29.00;;;12.48;;
36211;SDS011;22247;48.586;13.492;2024-01-30T07:33:56;31.95;;;14.10;;
36211;SDS011;22247;48.586;13.492;2024-01-30T07:38:45;28.67;;;15.13;;
36211;SDS011;22247;48.586;13.492;2024-01-30T07:43:35;30.25;;;10.77;;
36211;SDS011;22247;48.586;13.492;2024-01-30T07:46:00;38.63;;;14.43;;
36211;SDS011;22247;48.586;13.492;2024-01-30T07:48:26;33.70;;;11.70;;
36211;SDS011;22247;48.586;13.492;2024-01-30T07:50:51;28.05;;;11.38;;
36211;SDS011;22247;48.586;13.492;2024-01-30T07:53:17;27.45;;;10.30;;
36211;SDS011;22247;48.586;13.492;2024-01-30T07:58:10;35.33;;;12.80;;
36211;SDS011;22247;48.586;13.492;2024-01-30T08:03:03;41.17;;;13.57;;
36211;SDS011;22247;48.586;13.492;2024-01-30T08:05:30;37.08;;;13.35;;
36211;SDS011;22247;48.586;13.492;2024-01-30T08:07:55;35.63;;;13.07;;
36211;SDS011;22247;48.586;13.492;2024-01-30T08:10:22;32.90;;;13.38;;
36211;SDS011;22247;48.586;13.492;2024-01-30T08:12:47;29.15;;;11.77;;
36211;SDS011;22247;48.586;13.492;2024-01-30T08:15:12;35.35;;;13.60;;
36211;SDS011;22247;48.586;13.492;2024-01-30T08:20:02;42.75;;;15.23;;
36211;SDS011;22247;48.586;13.492;2024-01-30T08:22:28;40.15;;;14.43;;
36211;SDS011;22247;48.586;13.492;2024-01-30T08:24:53;37.13;;;14.20;;
36211;SDS011;22247;48.586;13.492;2024-01-30T08:27:18;38.65;;;14.57;;
36211;SDS011;22247;48.586;13.492;2024-01-30T08:29:43;44.38;;;16.00;;
36211;SDS011;22247;48.586;13.492;2024-01-30T08:32:08;41.92;;;16.08;;
36211;SDS011;22247;48.586;13.492;2024-01-30T08:34:33;41.20;;;15.65;;
36211;SDS011;22247;48.586;13.492;2024-01-30T08:36:58;38.85;;;14.95;;
36211;SDS011;22247;48.586;13.492;2024-01-30T08:39:23;44.63;;;17.00;;
36211;SDS011;22247;48.586;13.492;2024-01-30T08:41:48;34.15;;;14.65;;
36211;SDS011;22247;48.586;13.492;2024-01-30T08:44:13;40.97;;;16.42;;
36211;SDS011;22247;48.586;13.492;2024-01-30T08:46:38;36.00;;;15.52;;
36211;SDS011;22247;48.586;13.492;2024-01-30T08:49:03;41.38;;;15.07;;
36211;SDS011;22247;48.586;13.492;2024-01-30T08:51:28;35.00;;;14.40;;
36211;SDS011;22247;48.586;13.492;2024-01-30T08:53:53;35.28;;;14.88;;
36211;SDS011;22247;48.586;13.492;2024-01-30T08:56:18;36.45;;;14.90;;
36211;SDS011;22247;48.586;13.492;2024-01-30T08:58:43;43.67;;;16.45;;
36211;SDS011;22247;48.586;13.492;2024-01-30T09:01:08;40.53;;;15.43;;
36211;SDS011;22247;48.586;13.492;2024-01-30T09:03:34;42.47;;;15.68;;
36211;SDS011;22247;48.586;13.492;2024-01-30T09:05:59;34.42;;;15.27;;
36211;SDS011;22247;48.586;13.492;2024-01-30T09:08:24;36.88;;;15.35;;
36211;SDS011;22247;48.586;13.492;2024-01-30T09:10:49;37.13;;;15.85;;
36211;SDS011;22247;48.586;13.492;2024-01-30T09:13:15;48.05;;;17.27;;
36211;SDS011;22247;48.586;13.492;2024-01-30T09:15:41;53.60;;;16.58;;
36211;SDS011;22247;48.586;13.492;2024-01-30T09:18:06;43.63;;;17.75;;
36211;SDS011;22247;48.586;13.492;2024-01-30T09:22:56;40.40;;;15.68;;
36211;SDS011;22247;48.586;13.492;2024-01-30T09:25:21;43.10;;;17.20;;
36211;SDS011;22247;48.586;13.492;2024-01-30T09:30:11;38.45;;;16.60;;
36211;SDS011;22247;48.586;13.492;2024-01-30T09:32:36;34.67;;;15.43;;
36211;SDS011;22247;48.586;13.492;2024-01-30T09:35:01;38.85;;;17.20;;
36211;SDS011;22247;48.586;13.492;2024-01-30T09:37:26;55.45;;;18.98;;
36211;SDS011;22247;48.586;13.492;2024-01-30T09:44:41;42.35;;;16.20;;
36211;SDS011;22247;48.586;13.492;2024-01-30T09:47:07;51.22;;;18.23;;
36211;SDS011;22247;48.586;13.492;2024-01-30T09:49:32;49.60;;;19.83;;
36211;SDS011;22247;48.586;13.492;2024-01-30T09:51:58;48.15;;;19.23;;
36211;SDS011;22247;48.586;13.492;2024-01-30T09:56:47;44.22;;;18.17;;
36211;SDS011;22247;48.586;13.492;2024-01-30T09:59:12;47.72;;;18.23;;
36211;SDS011;22247;48.586;13.492;2024-01-30T10:01:37;45.35;;;19.13;;
36211;SDS011;22247;48.586;13.492;2024-01-30T10:04:06;47.03;;;18.00;;
36211;SDS011;22247;48.586;13.492;2024-01-30T10:06:31;45.35;;;18.30;;
36211;SDS011;22247;48.586;13.492;2024-01-30T10:08:58;41.97;;;18.92;;
36211;SDS011;22247;48.586;13.492;2024-01-30T10:11:23;50.65;;;20.65;;
36211;SDS011;22247;48.586;13.492;2024-01-30T10:13:48;46.10;;;19.15;;
36211;SDS011;22247;48.586;13.492;2024-01-30T10:16:14;42.47;;;18.92;;
36211;SDS011;22247;48.586;13.492;2024-01-30T10:18:41;48.47;;;19.08;;
36211;SDS011;22247;48.586;13.492;2024-01-30T10:21:06;44.58;;;18.10;;
36211;SDS011;22247;48.586;13.492;2024-01-30T10:25:56;46.15;;;18.27;;
36211;SDS011;22247;48.586;13.492;2024-01-30T10:28:21;41.72;;;18.55;;
36211;SDS011;22247;48.586;13.492;2024-01-30T10:30:46;45.40;;;17.42;;
36211;SDS011;22247;48.586;13.492;2024-01-30T10:33:13;38.10;;;17.55;;
36211;SDS011;22247;48.586;13.492;2024-01-30T10:35:38;38.65;;;17.63;;
36211;SDS011;22247;48.586;13.492;2024-01-30T10:38:05;37.10;;;15.57;;
36211;SDS011;22247;48.586;13.492;2024-01-30T10:40:35;44.15;;;17.38;;
36211;SDS011;22247;48.586;13.492;2024-01-30T10:43:01;39.55;;;16.73;;
36211;SDS011;22247;48.586;13.492;2024-01-30T10:47:55;32.65;;;15.48;;
36211;SDS011;22247;48.586;13.492;2024-01-30T10:50:22;33.45;;;14.88;;
36211;SDS011;22247;48.586;13.492;2024-01-30T10:52:49;37.72;;;15.73;;
36211;SDS011;22247;48.586;13.492;2024-01-30T10:57:40;42.67;;;16.48;;
36211;SDS011;22247;48.586;13.492;2024-01-30T11:00:09;37.42;;;16.98;;
36211;SDS011;22247;48.586;13.492;2024-01-30T11:02:36;35.72;;;15.60;;
36211;SDS011;22247;48.586;13.492;2024-01-30T11:05:04;34.90;;;15.73;;
36211;SDS011;22247;48.586;13.492;2024-01-30T11:07:29;31.88;;;15.75;;
36211;SDS011;22247;48.586;13.492;2024-01-30T11:12:25;40.03;;;16.88;;
36211;SDS011;22247;48.586;13.492;2024-01-30T11:15:01;34.22;;;13.80;;
36211;SDS011;22247;48.586;13.492;2024-01-30T11:17:39;37.13;;;15.20;;
36211;SDS011;22247;48.586;13.492;2024-01-30T11:20:16;44.13;;;16.25;;
36211;SDS011;22247;48.586;13.492;2024-01-30T11:22:53;33.10;;;14.93;;
36211;SDS011;22247;48.586;13.492;2024-01-30T11:25:22;30.63;;;14.63;;
36211;SDS011;22247;48.586;13.492;2024-01-30T11:27:49;37.10;;;15.38;;
36211;SDS011;22247;48.586;13.492;2024-01-30T11:30:21;42.30;;;16.05;;
36211;SDS011;22247;48.586;13.492;2024-01-30T11:32:57;34.53;;;15.43;;
36211;SDS011;22247;48.586;13.492;2024-01-30T11:35:22;35.97;;;16.30;;
36211;SDS011;22247;48.586;13.492;2024-01-30T11:37:48;35.17;;;15.70;;
36211;SDS011;22247;48.586;13.492;2024-01-30T11:40:14;34.13;;;15.10;;
36211;SDS011;22247;48.586;13.492;2024-01-30T11:42:39;30.10;;;14.40;;
36211;SDS011;22247;48.586;13.492;2024-01-30T11:45:05;34.90;;;14.70;;
36211;SDS011;22247;48.586;13.492;2024-01-30T11:47:30;29.58;;;14.73;;
36211;SDS011;22247;48.586;13.492;2024-01-30T11:49:55;34.05;;;15.63;;
36211;SDS011;22247;48.586;13.492;2024-01-30T11:54:45;35.35;;;15.15;;
36211;SDS011;22247;48.586;13.492;2024-01-30T11:57:10;34.50;;;14.70;;
36211;SDS011;22247;48.586;13.492;2024-01-30T11:59:35;33.67;;;14.98;;
36211;SDS011;22247;48.586;13.492;2024-01-30T12:02:00;36.13;;;15.70;;
36211;SDS011;22247;48.586;13.492;2024-01-30T12:04:28;36.50;;;15.73;;
36211;SDS011;22247;48.586;13.492;2024-01-30T12:06:53;27.45;;;14.43;;
36211;SDS011;22247;48.586;13.492;2024-01-30T12:09:18;35.95;;;16.02;;
36211;SDS011;22247;48.586;13.492;2024-01-30T12:14:09;44.42;;;16.83;;
36211;SDS011;22247;48.586;13.492;2024-01-30T12:19:00;32.25;;;14.68;;
36211;SDS011;22247;48.586;13.492;2024-01-30T12:21:26;30.25;;;14.98;;
36211;SDS011;22247;48.586;13.492;2024-01-30T12:26:16;39.00;;;16.05;;
36211;SDS011;22247;48.586;13.492;2024-01-30T12:31:06;26.27;;;13.50;;
36211;SDS011;22247;48.586;13.492;2024-01-30T12:33:33;34.95;;;15.98;;
36211;SDS011;22247;48.586;13.492;2024-01-30T12:38:24;31.10;;;14.90;;
36211;SDS011;22247;48.586;13.492;2024-01-30T12:40:49;34.25;;;15.10;;
36211;SDS011;22247;48.586;13.492;2024-01-30T12:43:14;31.50;;;14.25;;
36211;SDS011;22247;48.586;13.492;2024-01-30T12:45:41;37.30;;;16.63;;
36211;SDS011;22247;48.586;13.492;2024-01-30T12:48:06;36.17;;;14.82;;
36211;SDS011;22247;48.586;13.492;2024-01-30T12:50:33;40.78;;;17.25;;
36211;SDS011;22247;48.586;13.492;2024-01-30T12:52:58;37.42;;;16.75;;
36211;SDS011;22247;48.586;13.492;2024-01-30T12:55:24;33.63;;;15.73;;
36211;SDS011;22247;48.586;13.492;2024-01-30T12:57:52;37.55;;;16.88;;
36211;SDS011;22247;48.586;13.492;2024-01-30T13:02:42;37.03;;;16.77;;
36211;SDS011;22247;48.586;13.492;2024-01-30T13:05:09;31.65;;;15.55;;
36211;SDS011;22247;48.586;13.492;2024-01-30T13:07:34;35.30;;;15.73;;
36211;SDS011;22247;48.586;13.492;2024-01-30T13:10:02;38.85;;;15.52;;
36211;SDS011;22247;48.586;13.492;2024-01-30T13:12:27;36.53;;;16.27;;
36211;SDS011;22247;48.586;13.492;2024-01-30T13:17:18;33.90;;;15.07;;
36211;SDS011;22247;48.586;13.492;2024-01-30T13:19:43;38.80;;;14.98;;
36211;SDS011;22247;48.586;13.492;2024-01-30T13:22:08;34.53;;;15.45;;
36211;SDS011;22247;48.586;13.492;2024-01-30T13:24:33;39.53;;;17.42;;
36211;SDS011;22247;48.586;13.492;2024-01-30T13:29:23;34.38;;;15.00;;
36211;SDS011;22247;48.586;13.492;2024-01-30T13:34:13;41.58;;;16.35;;
36211;SDS011;22247;48.586;13.492;2024-01-30T13:39:03;36.88;;;17.00;;
36211;SDS011;22247;48.586;13.492;2024-01-30T13:41:34;41.08;;;17.45;;
36211;SDS011;22247;48.586;13.492;2024-01-30T13:44:00;40.35;;;17.10;;
36211;SDS011;22247;48.586;13.492;2024-01-30T13:46:27;40.00;;;17.17;;
36211;SDS011;22247;48.586;13.492;2024-01-30T13:51:17;41.55;;;16.67;;
36211;SDS011;22247;48.586;13.492;2024-01-30T13:56:07;35.30;;;15.30;;
36211;SDS011;22247;48.586;13.492;2024-01-30T14:00:57;34.43;;;15.57;;
36211;SDS011;22247;48.586;13.492;2024-01-30T14:03:22;34.10;;;16.25;;
36211;SDS011;22247;48.586;13.492;2024-01-30T14:05:47;37.80;;;17.58;;
36211;SDS011;22247;48.586;13.492;2024-01-30T14:10:37;35.67;;;16.02;;
36211;SDS011;22247;48.586;13.492;2024-01-30T14:15:27;34.33;;;15.85;;
36211;SDS011;22247;48.586;13.492;2024-01-30T14:20:17;38.03;;;16.92;;
36211;SDS011;22247;48.586;13.492;2024-01-30T14:25:08;39.70;;;17.60;;
36211;SDS011;22247;48.586;13.492;2024-01-30T14:27:34;46.28;;;19.80;;
36211;SDS011;22247;48.586;13.492;2024-01-30T14:29:59;43.72;;;18.77;;
36211;SDS011;22247;48.586;13.492;2024-01-30T14:34:50;51.30;;;21.45;;
36211;SDS011;22247;48.586;13.492;2024-01-30T14:37:16;47.17;;;19.60;;
36211;SDS011;22247;48.586;13.492;2024-01-30T14:42:06;49.00;;;19.45;;
36211;SDS011;22247;48.586;13.492;2024-01-30T14:44:31;43.05;;;19.52;;
36211;SDS011;22247;48.586;13.492;2024-01-30T14:47:00;46.00;;;21.02;;
36211;SDS011;22247;48.586;13.492;2024-01-30T14:49:28;50.13;;;20.38;;
36211;SDS011;22247;48.586;13.492;2024-01-30T14:51:54;45.40;;;22.10;;
36211;SDS011;22247;48.586;13.492;2024-01-30T14:56:44;42.90;;;18.58;;
36211;SDS011;22247;48.586;13.492;2024-01-30T14:59:09;53.15;;;21.55;;
36211;SDS011;22247;48.586;13.492;2024-01-30T15:01:34;52.08;;;21.13;;
36211;SDS011;22247;48.586;13.492;2024-01-30T15:03:59;46.95;;;22.17;;
36211;SDS011;22247;48.586;13.492;2024-01-30T15:08:50;48.58;;;20.50;;
36211;SDS011;22247;48.586;13.492;2024-01-30T15:11:15;64.90;;;23.80;;
36211;SDS011;22247;48.586;13.492;2024-01-30T15:16:05;60.63;;;22.77;;
36211;SDS011;22247;48.586;13.492;2024-01-30T15:18:30;50.50;;;22.08;;
36211;SDS011;22247;48.586;13.492;2024-01-30T15:23:20;52.13;;;22.30;;
36211;SDS011;22247;48.586;13.492;2024-01-30T15:28:10;50.83;;;21.25;;
36211;SDS011;22247;48.586;13.492;2024-01-30T15:30:35;53.28;;;22.88;;
36211;SDS011;22247;48.586;13.492;2024-01-30T15:33:00;58.65;;;22.38;;
36211;SDS011;22247;48.586;13.492;2024-01-30T15:35:25;67.55;;;25.55;;
36211;SDS011;22247;48.586;13.492;2024-01-30T15:37:50;63.42;;;24.67;;
36211;SDS011;22247;48.586;13.492;2024-01-30T15:40:16;70.65;;;25.90;;
36211;SDS011;22247;48.586;13.492;2024-01-30T15:42:42;62.15;;;26.05;;
36211;SDS011;22247;48.586;13.492;2024-01-30T15:45:07;61.78;;;25.40;;
36211;SDS011;22247;48.586;13.492;2024-01-30T15:49:57;62.10;;;24.20;;
36211;SDS011;22247;48.586;13.492;2024-01-30T15:52:22;69.95;;;24.30;;
36211;SDS011;22247;48.586;13.492;2024-01-30T15:54:47;60.42;;;23.23;;
36211;SDS011;22247;48.586;13.492;2024-01-30T15:57:12;56.55;;;22.98;;
36211;SDS011;22247;48.586;13.492;2024-01-30T16:02:01;56.33;;;22.02;;
36211;SDS011;22247;48.586;13.492;2024-01-30T16:06:51;62.75;;;25.60;;
36211;SDS011;22247;48.586;13.492;2024-01-30T16:09:18;68.80;;;25.88;;
36211;SDS011;22247;48.586;13.492;2024-01-30T16:11:43;76.03;;;28.05;;
36211;SDS011;22247;48.586;13.492;2024-01-30T16:16:34;64.82;;;25.65;;
36211;SDS011;22247;48.586;13.492;2024-01-30T16:19:03;64.93;;;25.92;;
36211;SDS011;22247;48.586;13.492;2024-01-30T16:21:28;76.70;;;27.65;;
36211;SDS011;22247;48.586;13.492;2024-01-30T16:23:55;67.82;;;26.98;;
36211;SDS011;22247;48.586;13.492;2024-01-30T16:26:20;78.57;;;28.48;;
36211;SDS011;22247;48.586;13.492;2024-01-30T16:28:45;68.57;;;28.05;;
36211;SDS011;22247;48.586;13.492;2024-01-30T16:31:10;62.95;;;25.83;;
36211;SDS011;22247;48.586;13.492;2024-01-30T16:36:02;64.10;;;24.40;;
36211;SDS011;22247;48.586;13.492;2024-01-30T16:40:52;76.13;;;28.83;;
36211;SDS011;22247;48.586;13.492;2024-01-30T16:43:17;75.90;;;27.60;;
36211;SDS011;22247;48.586;13.492;2024-01-30T16:45:42;63.03;;;26.38;;
36211;SDS011;22247;48.586;13.492;2024-01-30T16:48:10;71.53;;;26.70;;
36211;SDS011;22247;48.586;13.492;2024-01-30T16:50:40;74.43;;;28.98;;
36211;SDS011;22247;48.586;13.492;2024-01-30T16:53:05;81.22;;;27.88;;
36211;SDS011;22247;48.586;13.492;2024-01-30T16:55:30;72.53;;;26.35;;
36211;SDS011;22247;48.586;13.492;2024-01-30T16:57:55;67.95;;;26.50;;
36211;SDS011;22247;48.586;13.492;2024-01-30T17:00:20;73.05;;;26.55;;
36211;SDS011;22247;48.586;13.492;2024-01-30T17:02:45;63.63;;;23.83;;
36211;SDS011;22247;48.586;13.492;2024-01-30T17:05:10;76.20;;;27.77;;
36211;SDS011;22247;48.586;13.492;2024-01-30T17:07:35;71.22;;;26.77;;
36211;SDS011;22247;48.586;13.492;2024-01-30T17:12:25;58.05;;;22.13;;
36211;SDS011;22247;48.586;13.492;2024-01-30T17:14:50;73.30;;;24.05;;
36211;SDS011;22247;48.586;13.492;2024-01-30T17:17:15;69.32;;;26.15;;
36211;SDS011;22247;48.586;13.492;2024-01-30T17:19:41;62.47;;;23.92;;
36211;SDS011;22247;48.586;13.492;2024-01-30T17:22:06;72.05;;;27.35;;
36211;SDS011;22247;48.586;13.492;2024-01-30T17:24:31;69.15;;;25.83;;
36211;SDS011;22247;48.586;13.492;2024-01-30T17:26:56;64.28;;;24.88;;
36211;SDS011;22247;48.586;13.492;2024-01-30T17:29:21;72.53;;;24.60;;
36211;SDS011;22247;48.586;13.492;2024-01-30T17:31:46;72.55;;;26.38;;
36211;SDS011;22247;48.586;13.492;2024-01-30T17:34:12;65.82;;;23.48;;
36211;SDS011;22247;48.586;13.492;2024-01-30T17:36:37;67.88;;;26.08;;
36211;SDS011;22247;48.586;13.492;2024-01-30T17:39:02;64.63;;;24.75;;
36211;SDS011;22247;48.586;13.492;2024-01-30T17:41:27;62.40;;;25.15;;
36211;SDS011;22247;48.586;13.492;2024-01-30T17:43:52;69.28;;;25.42;;
36211;SDS011;22247;48.586;13.492;2024-01-30T17:46:17;72.13;;;27.15;;
36211;SDS011;22247;48.586;13.492;2024-01-30T17:48:42;84.22;;;29.02;;
36211;SDS011;22247;48.586;13.492;2024-01-30T17:51:10;69.60;;;26.85;;
36211;SDS011;22247;48.586;13.492;2024-01-30T17:53:38;73.68;;;27.33;;
36211;SDS011;22247;48.586;13.492;2024-01-30T17:56:03;74.90;;;27.90;;
36211;SDS011;22247;48.586;13.492;2024-01-30T17:58:30;78.78;;;28.65;;
36211;SDS011;22247;48.586;13.492;2024-01-30T18:00:55;78.93;;;28.38;;
36211;SDS011;22247;48.586;13.492;2024-01-30T18:03:24;69.28;;;26.52;;
36211;SDS011;22247;48.586;13.492;2024-01-30T21:48:48;61.00;;;19.50;;
36211;SDS011;22247;48.586;13.492;2024-01-30T21:51:13;62.00;;;21.50;;